sensor_id;sensor_type;location;lat;lon;timestamp;P1;durP1;ratioP1;P2;durP2;ratioP2
3627;SDS011;1830;49.000;12.074;2023-05-24T00:00:38;4.90;;;4.50;;
3627;SDS011;1830;49.000;12.074;2023-05-24T00:03:07;10.23;;;5.10;;
3627;SDS011;1830;49.000;12.074;2023-05-24T00:05:34;4.53;;;4.10;;
3627;SDS011;1830;49.000;12.074;2023-05-24T00:08:01;5.10;;;4.60;;
3627;SDS011;1830;49.000;12.074;2023-05-24T00:10:29;11.13;;;4.53;;
3627;SDS011;1830;49.000;12.074;2023-05-24T00:12:55;5.33;;;4.83;;
3627;SDS011;1830;49.000;12.074;2023-05-24T00:15:22;5.00;;;4.60;;
3627;SDS011;1830;49.000;12.074;2023-05-24T00:17:49;5.30;;;4.80;;
3627;SDS011;1830;49.000;12.074;2023-05-24T00:20:17;5.17;;;4.73;;
3627;SDS011;1830;49.000;12.074;2023-05-24T00:22:44;5.03;;;4.50;;
3627;SDS011;1830;49.000;12.074;2023-05-24T00:25:11;5.70;;;5.03;;
3627;SDS011;1830;49.000;12.074;2023-05-24T00:27:38;5.10;;;4.60;;
3627;SDS011;1830;49.000;12.074;2023-05-24T00:30:05;5.53;;;4.57;;
3627;SDS011;1830;49.000;12.074;2023-05-24T00:32:32;4.67;;;4.30;;
3627;SDS011;1830;49.000;12.074;2023-05-24T00:34:59;6.00;;;5.40;;
3627;SDS011;1830;49.000;12.074;2023-05-24T00:37:27;7.23;;;5.00;;
3627;SDS011;1830;49.000;12.074;2023-05-24T00:39:54;4.90;;;4.40;;
3627;SDS011;1830;49.000;12.074;2023-05-24T00:42:21;5.27;;;4.77;;
3627;SDS011;1830;49.000;12.074;2023-05-24T00:44:48;4.93;;;4.53;;
3627;SDS011;1830;49.000;12.074;2023-05-24T00:47:15;6.00;;;4.47;;
3627;SDS011;1830;49.000;12.074;2023-05-24T00:49:42;4.80;;;4.40;;
3627;SDS011;1830;49.000;12.074;2023-05-24T00:52:09;5.00;;;4.60;;
3627;SDS011;1830;49.000;12.074;2023-05-24T00:54:37;6.23;;;4.40;;
3627;SDS011;1830;49.000;12.074;2023-05-24T00:57:05;5.33;;;4.00;;
3627;SDS011;1830;49.000;12.074;2023-05-24T00:59:32;5.63;;;4.60;;
3627;SDS011;1830;49.000;12.074;2023-05-24T01:01:59;15.53;;;4.50;;
3627;SDS011;1830;49.000;12.074;2023-05-24T01:04:26;6.50;;;4.60;;
3627;SDS011;1830;49.000;12.074;2023-05-24T01:06:58;9.17;;;3.83;;
3627;SDS011;1830;49.000;12.074;2023-05-24T01:09:37;5.97;;;4.20;;
3627;SDS011;1830;49.000;12.074;2023-05-24T01:12:19;4.40;;;4.00;;
3627;SDS011;1830;49.000;12.074;2023-05-24T01:14:55;9.90;;;4.80;;
3627;SDS011;1830;49.000;12.074;2023-05-24T01:17:32;5.60;;;4.80;;
3627;SDS011;1830;49.000;12.074;2023-05-24T01:20:06;11.43;;;4.40;;
3627;SDS011;1830;49.000;12.074;2023-05-24T01:22:47;9.47;;;5.60;;
3627;SDS011;1830;49.000;12.074;2023-05-24T01:25:36;6.63;;;5.07;;
3627;SDS011;1830;49.000;12.074;2023-05-24T01:28:11;6.30;;;4.20;;
3627;SDS011;1830;49.000;12.074;2023-05-24T01:30:38;11.70;;;5.40;;
3627;SDS011;1830;49.000;12.074;2023-05-24T01:33:06;10.90;;;5.30;;
3627;SDS011;1830;49.000;12.074;2023-05-24T01:35:33;9.30;;;4.70;;
3627;SDS011;1830;49.000;12.074;2023-05-24T01:38:04;9.47;;;5.83;;
3627;SDS011;1830;49.000;12.074;2023-05-24T01:40:31;7.53;;;4.50;;
3627;SDS011;1830;49.000;12.074;2023-05-24T01:42:58;6.70;;;4.30;;
3627;SDS011;1830;49.000;12.074;2023-05-24T01:45:32;9.50;;;5.87;;
3627;SDS011;1830;49.000;12.074;2023-05-24T01:48:03;8.23;;;5.70;;
3627;SDS011;1830;49.000;12.074;2023-05-24T01:50:44;7.47;;;4.97;;
3627;SDS011;1830;49.000;12.074;2023-05-24T01:53:15;8.47;;;5.03;;
3627;SDS011;1830;49.000;12.074;2023-05-24T01:55:44;6.47;;;4.97;;
3627;SDS011;1830;49.000;12.074;2023-05-24T01:58:16;8.37;;;5.20;;
3627;SDS011;1830;49.000;12.074;2023-05-24T02:00:47;9.30;;;5.20;;
3627;SDS011;1830;49.000;12.074;2023-05-24T02:03:15;8.00;;;5.77;;
3627;SDS011;1830;49.000;12.074;2023-05-24T02:05:42;11.00;;;6.13;;
3627;SDS011;1830;49.000;12.074;2023-05-24T02:08:10;9.23;;;6.10;;
3627;SDS011;1830;49.000;12.074;2023-05-24T02:10:38;11.37;;;6.80;;
3627;SDS011;1830;49.000;12.074;2023-05-24T02:13:05;7.27;;;5.60;;
3627;SDS011;1830;49.000;12.074;2023-05-24T02:15:33;10.90;;;5.60;;
3627;SDS011;1830;49.000;12.074;2023-05-24T02:18:04;9.33;;;6.23;;
3627;SDS011;1830;49.000;12.074;2023-05-24T02:20:32;10.90;;;6.20;;
3627;SDS011;1830;49.000;12.074;2023-05-24T02:23:01;10.90;;;5.00;;
3627;SDS011;1830;49.000;12.074;2023-05-24T02:25:28;18.27;;;5.80;;
3627;SDS011;1830;49.000;12.074;2023-05-24T02:27:55;11.50;;;6.30;;
3627;SDS011;1830;49.000;12.074;2023-05-24T02:30:22;13.80;;;6.20;;
3627;SDS011;1830;49.000;12.074;2023-05-24T02:32:49;7.83;;;5.60;;
3627;SDS011;1830;49.000;12.074;2023-05-24T02:35:18;17.03;;;6.40;;
3627;SDS011;1830;49.000;12.074;2023-05-24T02:37:45;10.73;;;6.57;;
3627;SDS011;1830;49.000;12.074;2023-05-24T02:40:11;13.90;;;6.87;;
3627;SDS011;1830;49.000;12.074;2023-05-24T02:42:38;9.30;;;6.07;;
3627;SDS011;1830;49.000;12.074;2023-05-24T02:45:06;16.03;;;6.80;;
3627;SDS011;1830;49.000;12.074;2023-05-24T02:47:33;9.77;;;5.93;;
3627;SDS011;1830;49.000;12.074;2023-05-24T02:50:00;10.80;;;6.90;;
3627;SDS011;1830;49.000;12.074;2023-05-24T02:52:28;16.83;;;6.83;;
3627;SDS011;1830;49.000;12.074;2023-05-24T02:54:55;13.77;;;6.90;;
3627;SDS011;1830;49.000;12.074;2023-05-24T02:57:22;19.33;;;7.13;;
3627;SDS011;1830;49.000;12.074;2023-05-24T02:59:48;12.10;;;6.30;;
3627;SDS011;1830;49.000;12.074;2023-05-24T03:02:15;12.13;;;6.30;;
3627;SDS011;1830;49.000;12.074;2023-05-24T03:04:43;14.37;;;6.77;;
3627;SDS011;1830;49.000;12.074;2023-05-24T03:07:10;18.00;;;6.90;;
3627;SDS011;1830;49.000;12.074;2023-05-24T03:09:39;16.27;;;6.20;;
3627;SDS011;1830;49.000;12.074;2023-05-24T03:12:06;19.23;;;6.70;;
3627;SDS011;1830;49.000;12.074;2023-05-24T03:14:33;11.80;;;5.73;;
3627;SDS011;1830;49.000;12.074;2023-05-24T03:16:59;18.37;;;7.00;;
3627;SDS011;1830;49.000;12.074;2023-05-24T03:19:26;19.87;;;7.60;;
3627;SDS011;1830;49.000;12.074;2023-05-24T03:21:53;15.43;;;7.40;;
3627;SDS011;1830;49.000;12.074;2023-05-24T03:24:20;14.43;;;6.30;;
3627;SDS011;1830;49.000;12.074;2023-05-24T03:26:48;13.20;;;7.73;;
3627;SDS011;1830;49.000;12.074;2023-05-24T03:29:16;13.20;;;7.17;;
3627;SDS011;1830;49.000;12.074;2023-05-24T03:31:43;10.00;;;5.60;;
3627;SDS011;1830;49.000;12.074;2023-05-24T03:34:10;11.70;;;6.23;;
3627;SDS011;1830;49.000;12.074;2023-05-24T03:36:37;14.40;;;6.23;;
3627;SDS011;1830;49.000;12.074;2023-05-24T03:39:04;14.90;;;6.80;;
3627;SDS011;1830;49.000;12.074;2023-05-24T03:41:31;15.27;;;6.30;;
3627;SDS011;1830;49.000;12.074;2023-05-24T03:44:00;18.17;;;7.97;;
3627;SDS011;1830;49.000;12.074;2023-05-24T03:46:27;18.93;;;6.73;;
3627;SDS011;1830;49.000;12.074;2023-05-24T03:48:53;15.97;;;6.80;;
3627;SDS011;1830;49.000;12.074;2023-05-24T03:51:20;22.10;;;9.13;;
3627;SDS011;1830;49.000;12.074;2023-05-24T03:53:48;15.17;;;7.07;;
3627;SDS011;1830;49.000;12.074;2023-05-24T03:56:15;20.03;;;7.43;;
3627;SDS011;1830;49.000;12.074;2023-05-24T03:58:42;17.30;;;7.43;;
3627;SDS011;1830;49.000;12.074;2023-05-24T04:01:11;15.10;;;6.83;;
3627;SDS011;1830;49.000;12.074;2023-05-24T04:03:37;12.80;;;7.60;;
3627;SDS011;1830;49.000;12.074;2023-05-24T04:06:04;20.43;;;8.03;;
3627;SDS011;1830;49.000;12.074;2023-05-24T04:08:32;20.37;;;7.77;;
3627;SDS011;1830;49.000;12.074;2023-05-24T04:10:58;15.93;;;6.73;;
3627;SDS011;1830;49.000;12.074;2023-05-24T04:13:26;16.63;;;7.00;;
3627;SDS011;1830;49.000;12.074;2023-05-24T04:15:53;18.97;;;6.70;;
3627;SDS011;1830;49.000;12.074;2023-05-24T04:18:21;24.93;;;7.37;;
3627;SDS011;1830;49.000;12.074;2023-05-24T04:20:48;12.40;;;6.70;;
3627;SDS011;1830;49.000;12.074;2023-05-24T04:23:15;17.57;;;7.97;;
3627;SDS011;1830;49.000;12.074;2023-05-24T04:25:42;21.60;;;8.33;;
3627;SDS011;1830;49.000;12.074;2023-05-24T04:28:09;12.27;;;7.00;;
3627;SDS011;1830;49.000;12.074;2023-05-24T04:30:36;16.83;;;7.60;;
3627;SDS011;1830;49.000;12.074;2023-05-24T04:33:02;23.13;;;7.90;;
3627;SDS011;1830;49.000;12.074;2023-05-24T04:35:31;11.57;;;6.80;;
3627;SDS011;1830;49.000;12.074;2023-05-24T04:37:57;12.10;;;6.90;;
3627;SDS011;1830;49.000;12.074;2023-05-24T04:40:24;16.87;;;8.00;;
3627;SDS011;1830;49.000;12.074;2023-05-24T04:42:51;23.47;;;7.63;;
3627;SDS011;1830;49.000;12.074;2023-05-24T04:45:26;23.00;;;8.40;;
3627;SDS011;1830;49.000;12.074;2023-05-24T04:48:50;26.13;;;8.30;;
3627;SDS011;1830;49.000;12.074;2023-05-24T04:54:34;21.00;;;7.57;;
3627;SDS011;1830;49.000;12.074;2023-05-24T04:57:01;26.30;;;8.57;;
3627;SDS011;1830;49.000;12.074;2023-05-24T04:59:32;15.47;;;7.97;;
3627;SDS011;1830;49.000;12.074;2023-05-24T05:02:08;21.33;;;8.50;;
3627;SDS011;1830;49.000;12.074;2023-05-24T05:04:37;20.77;;;8.03;;
3627;SDS011;1830;49.000;12.074;2023-05-24T05:07:12;20.13;;;8.13;;
3627;SDS011;1830;49.000;12.074;2023-05-24T05:09:41;17.77;;;8.40;;
3627;SDS011;1830;49.000;12.074;2023-05-24T05:12:22;16.40;;;8.20;;
3627;SDS011;1830;49.000;12.074;2023-05-24T05:18:05;13.30;;;8.00;;
3627;SDS011;1830;49.000;12.074;2023-05-24T05:20:57;24.43;;;8.27;;
3627;SDS011;1830;49.000;12.074;2023-05-24T05:23:33;26.40;;;8.10;;
3627;SDS011;1830;49.000;12.074;2023-05-24T05:26:06;17.83;;;8.07;;
3627;SDS011;1830;49.000;12.074;2023-05-24T05:28:43;21.80;;;8.57;;
3627;SDS011;1830;49.000;12.074;2023-05-24T05:34:08;17.77;;;8.20;;
3627;SDS011;1830;49.000;12.074;2023-05-24T05:36:38;20.73;;;8.67;;
3627;SDS011;1830;49.000;12.074;2023-05-24T05:42:08;23.90;;;8.80;;
3627;SDS011;1830;49.000;12.074;2023-05-24T05:44:40;20.23;;;8.60;;
3627;SDS011;1830;49.000;12.074;2023-05-24T05:47:22;27.90;;;8.00;;
3627;SDS011;1830;49.000;12.074;2023-05-24T05:49:48;17.10;;;8.03;;
3627;SDS011;1830;49.000;12.074;2023-05-24T05:52:15;21.33;;;8.47;;
3627;SDS011;1830;49.000;12.074;2023-05-24T05:54:46;24.47;;;8.47;;
3627;SDS011;1830;49.000;12.074;2023-05-24T05:57:30;22.30;;;8.80;;
3627;SDS011;1830;49.000;12.074;2023-05-24T05:59:59;22.90;;;9.97;;
3627;SDS011;1830;49.000;12.074;2023-05-24T06:02:28;24.60;;;9.10;;
3627;SDS011;1830;49.000;12.074;2023-05-24T06:05:01;24.93;;;9.10;;
3627;SDS011;1830;49.000;12.074;2023-05-24T06:07:28;39.20;;;14.60;;
3627;SDS011;1830;49.000;12.074;2023-05-24T06:10:02;20.93;;;8.90;;
3627;SDS011;1830;49.000;12.074;2023-05-24T06:12:41;15.90;;;7.90;;
3627;SDS011;1830;49.000;12.074;2023-05-24T06:15:17;18.57;;;8.40;;
3627;SDS011;1830;49.000;12.074;2023-05-24T06:17:46;20.63;;;8.70;;
3627;SDS011;1830;49.000;12.074;2023-05-24T06:20:30;19.10;;;9.60;;
3627;SDS011;1830;49.000;12.074;2023-05-24T06:25:54;26.87;;;10.17;;
3627;SDS011;1830;49.000;12.074;2023-05-24T06:28:21;23.43;;;9.63;;
3627;SDS011;1830;49.000;12.074;2023-05-24T06:30:48;24.77;;;9.50;;
3627;SDS011;1830;49.000;12.074;2023-05-24T06:33:18;30.97;;;9.90;;
3627;SDS011;1830;49.000;12.074;2023-05-24T06:35:46;19.07;;;8.43;;
3627;SDS011;1830;49.000;12.074;2023-05-24T06:38:13;27.23;;;11.70;;
3627;SDS011;1830;49.000;12.074;2023-05-24T06:40:41;27.67;;;13.10;;
3627;SDS011;1830;49.000;12.074;2023-05-24T06:43:14;34.00;;;13.00;;
3627;SDS011;1830;49.000;12.074;2023-05-24T07:37:28;37.00;;;13.53;;
3627;SDS011;1830;49.000;12.074;2023-05-24T07:39:55;62.07;;;25.13;;
3627;SDS011;1830;49.000;12.074;2023-05-24T07:42:21;22.40;;;7.27;;
3627;SDS011;1830;49.000;12.074;2023-05-24T07:44:48;20.93;;;7.90;;
3627;SDS011;1830;49.000;12.074;2023-05-24T07:47:15;26.97;;;9.93;;
3627;SDS011;1830;49.000;12.074;2023-05-24T07:49:42;36.17;;;12.00;;
3627;SDS011;1830;49.000;12.074;2023-05-24T07:52:08;23.53;;;8.07;;
3627;SDS011;1830;49.000;12.074;2023-05-24T07:54:37;28.00;;;9.40;;
3627;SDS011;1830;49.000;12.074;2023-05-24T07:57:04;16.70;;;7.20;;
3627;SDS011;1830;49.000;12.074;2023-05-24T07:59:32;34.03;;;8.80;;
3627;SDS011;1830;49.000;12.074;2023-05-24T08:01:58;22.20;;;8.30;;
3627;SDS011;1830;49.000;12.074;2023-05-24T08:04:29;21.93;;;7.93;;
3627;SDS011;1830;49.000;12.074;2023-05-24T08:06:56;18.80;;;7.30;;
3627;SDS011;1830;49.000;12.074;2023-05-24T08:09:23;15.60;;;6.67;;
3627;SDS011;1830;49.000;12.074;2023-05-24T08:11:53;24.10;;;10.20;;
3627;SDS011;1830;49.000;12.074;2023-05-24T08:14:20;29.93;;;8.90;;
3627;SDS011;1830;49.000;12.074;2023-05-24T08:16:47;20.80;;;9.20;;
3627;SDS011;1830;49.000;12.074;2023-05-24T08:19:14;18.60;;;8.03;;
3627;SDS011;1830;49.000;12.074;2023-05-24T08:21:40;18.40;;;8.10;;
3627;SDS011;1830;49.000;12.074;2023-05-24T08:24:07;20.47;;;8.00;;
3627;SDS011;1830;49.000;12.074;2023-05-24T08:26:34;22.23;;;7.57;;
3627;SDS011;1830;49.000;12.074;2023-05-24T08:29:02;21.60;;;8.63;;
3627;SDS011;1830;49.000;12.074;2023-05-24T08:31:29;19.27;;;6.83;;
3627;SDS011;1830;49.000;12.074;2023-05-24T08:33:58;25.50;;;8.50;;
3627;SDS011;1830;49.000;12.074;2023-05-24T08:36:25;19.50;;;7.80;;
3627;SDS011;1830;49.000;12.074;2023-05-24T08:38:52;21.90;;;8.40;;
3627;SDS011;1830;49.000;12.074;2023-05-24T08:41:18;25.50;;;8.93;;
3627;SDS011;1830;49.000;12.074;2023-05-24T08:43:46;22.47;;;8.77;;
3627;SDS011;1830;49.000;12.074;2023-05-24T08:46:15;18.70;;;8.47;;
3627;SDS011;1830;49.000;12.074;2023-05-24T08:48:43;40.17;;;9.20;;
3627;SDS011;1830;49.000;12.074;2023-05-24T08:51:12;21.60;;;8.37;;
3627;SDS011;1830;49.000;12.074;2023-05-24T08:53:40;16.57;;;7.77;;
3627;SDS011;1830;49.000;12.074;2023-05-24T08:56:13;21.03;;;8.20;;
3627;SDS011;1830;49.000;12.074;2023-05-24T08:58:41;31.00;;;7.47;;
3627;SDS011;1830;49.000;12.074;2023-05-24T09:01:08;24.77;;;8.40;;
3627;SDS011;1830;49.000;12.074;2023-05-24T09:03:36;24.63;;;9.20;;
3627;SDS011;1830;49.000;12.074;2023-05-24T09:06:06;17.90;;;8.50;;
3627;SDS011;1830;49.000;12.074;2023-05-24T09:08:36;23.07;;;8.53;;
3627;SDS011;1830;49.000;12.074;2023-05-24T09:11:03;24.83;;;9.00;;
3627;SDS011;1830;49.000;12.074;2023-05-24T09:13:32;28.03;;;8.00;;
3627;SDS011;1830;49.000;12.074;2023-05-24T09:15:59;22.83;;;8.10;;
3627;SDS011;1830;49.000;12.074;2023-05-24T09:18:26;19.73;;;8.50;;
3627;SDS011;1830;49.000;12.074;2023-05-24T09:20:55;16.20;;;7.70;;
3627;SDS011;1830;49.000;12.074;2023-05-24T09:23:22;21.27;;;8.40;;
3627;SDS011;1830;49.000;12.074;2023-05-24T09:25:50;21.30;;;7.50;;
3627;SDS011;1830;49.000;12.074;2023-05-24T09:28:18;19.57;;;8.90;;
3627;SDS011;1830;49.000;12.074;2023-05-24T09:30:58;21.47;;;8.40;;
3627;SDS011;1830;49.000;12.074;2023-05-24T09:33:30;19.70;;;9.07;;
3627;SDS011;1830;49.000;12.074;2023-05-24T09:35:59;15.60;;;8.20;;
3627;SDS011;1830;49.000;12.074;2023-05-24T09:38:27;25.30;;;8.73;;
3627;SDS011;1830;49.000;12.074;2023-05-24T09:40:58;16.00;;;9.33;;
3627;SDS011;1830;49.000;12.074;2023-05-24T09:43:27;18.27;;;8.63;;
3627;SDS011;1830;49.000;12.074;2023-05-24T09:45:55;26.03;;;9.73;;
3627;SDS011;1830;49.000;12.074;2023-05-24T09:48:24;18.33;;;8.40;;
3627;SDS011;1830;49.000;12.074;2023-05-24T09:51:05;20.93;;;9.03;;
3627;SDS011;1830;49.000;12.074;2023-05-24T09:53:35;28.30;;;8.10;;
3627;SDS011;1830;49.000;12.074;2023-05-24T09:56:02;23.50;;;8.73;;
3627;SDS011;1830;49.000;12.074;2023-05-24T09:58:31;17.40;;;7.77;;
3627;SDS011;1830;49.000;12.074;2023-05-24T10:01:04;19.67;;;8.97;;
3627;SDS011;1830;49.000;12.074;2023-05-24T10:03:32;17.97;;;8.67;;
3627;SDS011;1830;49.000;12.074;2023-05-24T10:06:01;20.33;;;8.00;;
3627;SDS011;1830;49.000;12.074;2023-05-24T10:08:33;24.23;;;8.37;;
3627;SDS011;1830;49.000;12.074;2023-05-24T10:11:01;14.53;;;8.30;;
3627;SDS011;1830;49.000;12.074;2023-05-24T10:13:29;19.77;;;7.90;;
3627;SDS011;1830;49.000;12.074;2023-05-24T10:15:57;18.60;;;8.10;;
3627;SDS011;1830;49.000;12.074;2023-05-24T10:18:24;16.87;;;7.60;;
3627;SDS011;1830;49.000;12.074;2023-05-24T10:20:51;18.03;;;8.40;;
3627;SDS011;1830;49.000;12.074;2023-05-24T10:23:22;13.83;;;7.63;;
3627;SDS011;1830;49.000;12.074;2023-05-24T10:25:54;14.73;;;7.90;;
3627;SDS011;1830;49.000;12.074;2023-05-24T10:28:25;15.30;;;7.37;;
3627;SDS011;1830;49.000;12.074;2023-05-24T10:30:57;12.00;;;7.20;;
3627;SDS011;1830;49.000;12.074;2023-05-24T10:33:28;13.67;;;7.77;;
3627;SDS011;1830;49.000;12.074;2023-05-24T10:35:56;14.70;;;7.87;;
3627;SDS011;1830;49.000;12.074;2023-05-24T10:38:23;15.53;;;7.77;;
3627;SDS011;1830;49.000;12.074;2023-05-24T10:40:50;18.40;;;7.83;;
3627;SDS011;1830;49.000;12.074;2023-05-24T10:43:19;14.90;;;7.20;;
3627;SDS011;1830;49.000;12.074;2023-05-24T10:45:47;21.57;;;7.70;;
3627;SDS011;1830;49.000;12.074;2023-05-24T10:48:30;15.77;;;7.20;;
3627;SDS011;1830;49.000;12.074;2023-05-24T10:56:45;22.47;;;8.47;;
3627;SDS011;1830;49.000;12.074;2023-05-24T10:59:32;12.50;;;6.90;;
3627;SDS011;1830;49.000;12.074;2023-05-24T11:02:02;18.93;;;8.10;;
3627;SDS011;1830;49.000;12.074;2023-05-24T11:04:35;18.27;;;7.30;;
3627;SDS011;1830;49.000;12.074;2023-05-24T11:07:04;12.20;;;8.13;;
3627;SDS011;1830;49.000;12.074;2023-05-24T11:09:33;15.13;;;8.40;;
3627;SDS011;1830;49.000;12.074;2023-05-24T11:12:01;18.70;;;8.23;;
3627;SDS011;1830;49.000;12.074;2023-05-24T11:14:33;16.93;;;7.40;;
3627;SDS011;1830;49.000;12.074;2023-05-24T11:17:02;17.70;;;7.90;;
3627;SDS011;1830;49.000;12.074;2023-05-24T11:19:30;15.87;;;7.60;;
3627;SDS011;1830;49.000;12.074;2023-05-24T11:22:00;33.93;;;8.77;;
3627;SDS011;1830;49.000;12.074;2023-05-24T11:24:28;15.23;;;6.87;;
3627;SDS011;1830;49.000;12.074;2023-05-24T11:26:55;13.70;;;6.57;;
3627;SDS011;1830;49.000;12.074;2023-05-24T11:29:22;14.57;;;7.97;;
3627;SDS011;1830;49.000;12.074;2023-05-24T11:31:51;17.63;;;7.43;;
3627;SDS011;1830;49.000;12.074;2023-05-24T11:34:19;20.83;;;7.50;;
3627;SDS011;1830;49.000;12.074;2023-05-24T11:36:46;16.83;;;6.50;;
3627;SDS011;1830;49.000;12.074;2023-05-24T11:39:14;13.90;;;7.53;;
3627;SDS011;1830;49.000;12.074;2023-05-24T11:41:42;19.20;;;7.50;;
3627;SDS011;1830;49.000;12.074;2023-05-24T11:44:09;16.03;;;7.00;;
3627;SDS011;1830;49.000;12.074;2023-05-24T11:46:37;14.50;;;6.67;;
3627;SDS011;1830;49.000;12.074;2023-05-24T11:49:10;10.60;;;6.77;;
3627;SDS011;1830;49.000;12.074;2023-05-24T11:51:37;10.10;;;6.10;;
3627;SDS011;1830;49.000;12.074;2023-05-24T11:54:06;14.63;;;6.90;;
3627;SDS011;1830;49.000;12.074;2023-05-24T11:56:33;13.07;;;6.20;;
3627;SDS011;1830;49.000;12.074;2023-05-24T11:59:07;11.00;;;5.93;;
3627;SDS011;1830;49.000;12.074;2023-05-24T12:01:36;14.33;;;6.57;;
3627;SDS011;1830;49.000;12.074;2023-05-24T12:04:04;10.40;;;5.90;;
3627;SDS011;1830;49.000;12.074;2023-05-24T12:06:35;11.40;;;6.07;;
3627;SDS011;1830;49.000;12.074;2023-05-24T12:09:03;14.90;;;5.40;;
3627;SDS011;1830;49.000;12.074;2023-05-24T12:11:33;11.27;;;6.13;;
3627;SDS011;1830;49.000;12.074;2023-05-24T12:14:03;15.83;;;6.60;;
3627;SDS011;1830;49.000;12.074;2023-05-24T12:16:30;12.67;;;6.17;;
3627;SDS011;1830;49.000;12.074;2023-05-24T12:18:57;14.93;;;5.10;;
3627;SDS011;1830;49.000;12.074;2023-05-24T12:21:24;13.00;;;5.10;;
3627;SDS011;1830;49.000;12.074;2023-05-24T12:23:57;8.97;;;4.80;;
3627;SDS011;1830;49.000;12.074;2023-05-24T12:26:33;10.00;;;4.97;;
3627;SDS011;1830;49.000;12.074;2023-05-24T12:29:01;11.93;;;5.60;;
3627;SDS011;1830;49.000;12.074;2023-05-24T12:31:28;10.70;;;4.80;;
3627;SDS011;1830;49.000;12.074;2023-05-24T12:37:28;13.73;;;5.00;;
3627;SDS011;1830;49.000;12.074;2023-05-24T12:40:23;6.23;;;4.40;;
3627;SDS011;1830;49.000;12.074;2023-05-24T12:43:17;14.23;;;4.53;;
3627;SDS011;1830;49.000;12.074;2023-05-24T12:46:17;14.57;;;5.97;;
3627;SDS011;1830;49.000;12.074;2023-05-24T12:48:53;10.57;;;5.43;;
3627;SDS011;1830;49.000;12.074;2023-05-24T12:51:20;11.00;;;5.30;;
3627;SDS011;1830;49.000;12.074;2023-05-24T12:53:47;13.73;;;6.20;;
3627;SDS011;1830;49.000;12.074;2023-05-24T12:56:15;15.00;;;6.03;;
3627;SDS011;1830;49.000;12.074;2023-05-24T12:58:51;14.23;;;5.77;;
3627;SDS011;1830;49.000;12.074;2023-05-24T13:01:24;16.73;;;5.97;;
3627;SDS011;1830;49.000;12.074;2023-05-24T13:03:52;12.83;;;5.30;;
3627;SDS011;1830;49.000;12.074;2023-05-24T13:06:20;15.93;;;5.73;;
3627;SDS011;1830;49.000;12.074;2023-05-24T13:08:47;13.10;;;5.57;;
3627;SDS011;1830;49.000;12.074;2023-05-24T13:11:16;10.33;;;5.20;;
3627;SDS011;1830;49.000;12.074;2023-05-24T13:13:43;8.27;;;5.27;;
3627;SDS011;1830;49.000;12.074;2023-05-24T13:16:10;16.10;;;5.87;;
3627;SDS011;1830;49.000;12.074;2023-05-24T13:18:37;22.30;;;6.07;;
3627;SDS011;1830;49.000;12.074;2023-05-24T13:21:04;14.83;;;5.30;;
3627;SDS011;1830;49.000;12.074;2023-05-24T13:23:31;17.30;;;6.00;;
3627;SDS011;1830;49.000;12.074;2023-05-24T13:26:00;21.20;;;6.10;;
3627;SDS011;1830;49.000;12.074;2023-05-24T13:28:31;16.10;;;5.40;;
3627;SDS011;1830;49.000;12.074;2023-05-24T13:30:59;23.20;;;6.60;;
3627;SDS011;1830;49.000;12.074;2023-05-24T13:33:25;14.90;;;5.27;;
3627;SDS011;1830;49.000;12.074;2023-05-24T13:35:52;14.30;;;5.07;;
3627;SDS011;1830;49.000;12.074;2023-05-24T13:38:20;16.60;;;5.80;;
3627;SDS011;1830;49.000;12.074;2023-05-24T13:40:47;16.47;;;4.60;;
3627;SDS011;1830;49.000;12.074;2023-05-24T13:43:14;11.80;;;5.23;;
3627;SDS011;1830;49.000;12.074;2023-05-24T13:45:42;16.70;;;5.20;;
3627;SDS011;1830;49.000;12.074;2023-05-24T13:48:09;11.77;;;4.80;;
3627;SDS011;1830;49.000;12.074;2023-05-24T13:50:36;13.23;;;4.73;;
3627;SDS011;1830;49.000;12.074;2023-05-24T13:53:03;12.33;;;4.67;;
3627;SDS011;1830;49.000;12.074;2023-05-24T13:55:31;14.43;;;4.70;;
3627;SDS011;1830;49.000;12.074;2023-05-24T13:57:59;9.83;;;4.40;;
3627;SDS011;1830;49.000;12.074;2023-05-24T14:00:28;18.20;;;5.10;;
3627;SDS011;1830;49.000;12.074;2023-05-24T14:02:57;8.50;;;4.27;;
3627;SDS011;1830;49.000;12.074;2023-05-24T14:05:24;17.90;;;5.27;;
3627;SDS011;1830;49.000;12.074;2023-05-24T14:07:53;11.80;;;5.10;;
3627;SDS011;1830;49.000;12.074;2023-05-24T14:10:20;9.57;;;4.63;;
3627;SDS011;1830;49.000;12.074;2023-05-24T14:12:47;16.37;;;5.30;;
3627;SDS011;1830;49.000;12.074;2023-05-24T14:15:14;15.33;;;5.00;;
3627;SDS011;1830;49.000;12.074;2023-05-24T14:17:41;17.83;;;5.17;;
3627;SDS011;1830;49.000;12.074;2023-05-24T14:20:09;12.10;;;5.30;;
3627;SDS011;1830;49.000;12.074;2023-05-24T14:22:36;9.57;;;4.80;;
3627;SDS011;1830;49.000;12.074;2023-05-24T14:25:04;16.50;;;5.27;;
3627;SDS011;1830;49.000;12.074;2023-05-24T14:27:32;10.93;;;4.33;;
3627;SDS011;1830;49.000;12.074;2023-05-24T14:29:58;11.80;;;4.80;;
3627;SDS011;1830;49.000;12.074;2023-05-24T14:32:25;17.40;;;5.23;;
3627;SDS011;1830;49.000;12.074;2023-05-24T14:34:52;11.90;;;5.17;;
3627;SDS011;1830;49.000;12.074;2023-05-24T14:37:20;10.90;;;4.73;;
3627;SDS011;1830;49.000;12.074;2023-05-24T14:39:47;13.77;;;5.23;;
3627;SDS011;1830;49.000;12.074;2023-05-24T14:42:13;7.30;;;4.80;;
3627;SDS011;1830;49.000;12.074;2023-05-24T14:44:40;14.03;;;5.73;;
3627;SDS011;1830;49.000;12.074;2023-05-24T14:47:07;14.90;;;4.40;;
3627;SDS011;1830;49.000;12.074;2023-05-24T14:49:34;13.20;;;4.53;;
3627;SDS011;1830;49.000;12.074;2023-05-24T14:52:01;19.70;;;5.00;;
3627;SDS011;1830;49.000;12.074;2023-05-24T14:54:30;13.07;;;4.90;;
3627;SDS011;1830;49.000;12.074;2023-05-24T14:56:56;17.17;;;4.57;;
3627;SDS011;1830;49.000;12.074;2023-05-24T14:59:23;12.23;;;5.17;;
3627;SDS011;1830;49.000;12.074;2023-05-24T15:01:50;9.37;;;4.63;;
3627;SDS011;1830;49.000;12.074;2023-05-24T15:04:17;9.53;;;4.27;;
3627;SDS011;1830;49.000;12.074;2023-05-24T15:06:44;9.80;;;4.60;;
3627;SDS011;1830;49.000;12.074;2023-05-24T15:09:11;15.13;;;4.87;;
3627;SDS011;1830;49.000;12.074;2023-05-24T15:11:39;12.30;;;4.70;;
3627;SDS011;1830;49.000;12.074;2023-05-24T15:14:06;14.73;;;4.23;;
3627;SDS011;1830;49.000;12.074;2023-05-24T15:16:33;13.23;;;5.10;;
3627;SDS011;1830;49.000;12.074;2023-05-24T15:19:00;14.17;;;4.70;;
3627;SDS011;1830;49.000;12.074;2023-05-24T15:21:27;19.30;;;4.73;;
3627;SDS011;1830;49.000;12.074;2023-05-24T15:23:53;14.00;;;5.53;;
3627;SDS011;1830;49.000;12.074;2023-05-24T15:26:20;19.93;;;5.13;;
3627;SDS011;1830;49.000;12.074;2023-05-24T15:28:48;19.27;;;5.20;;
3627;SDS011;1830;49.000;12.074;2023-05-24T15:31:16;15.00;;;4.47;;
3627;SDS011;1830;49.000;12.074;2023-05-24T15:33:43;15.37;;;4.87;;
3627;SDS011;1830;49.000;12.074;2023-05-24T15:36:10;18.00;;;5.00;;
3627;SDS011;1830;49.000;12.074;2023-05-24T15:38:38;19.03;;;5.67;;
3627;SDS011;1830;49.000;12.074;2023-05-24T15:41:06;13.33;;;4.47;;
3627;SDS011;1830;49.000;12.074;2023-05-24T15:43:33;17.33;;;5.10;;
3627;SDS011;1830;49.000;12.074;2023-05-24T15:46:01;15.17;;;4.70;;
3627;SDS011;1830;49.000;12.074;2023-05-24T15:48:28;15.67;;;5.23;;
3627;SDS011;1830;49.000;12.074;2023-05-24T15:50:55;16.33;;;4.97;;
3627;SDS011;1830;49.000;12.074;2023-05-24T15:53:22;12.47;;;5.10;;
3627;SDS011;1830;49.000;12.074;2023-05-24T15:55:49;11.27;;;4.43;;
3627;SDS011;1830;49.000;12.074;2023-05-24T15:58:16;18.47;;;4.00;;
3627;SDS011;1830;49.000;12.074;2023-05-24T16:00:43;11.70;;;5.37;;
3627;SDS011;1830;49.000;12.074;2023-05-24T16:03:11;10.33;;;4.33;;
3627;SDS011;1830;49.000;12.074;2023-05-24T16:05:39;12.00;;;4.63;;
3627;SDS011;1830;49.000;12.074;2023-05-24T16:08:06;13.07;;;4.73;;
3627;SDS011;1830;49.000;12.074;2023-05-24T16:10:32;13.63;;;4.97;;
3627;SDS011;1830;49.000;12.074;2023-05-24T16:13:00;10.23;;;4.57;;
3627;SDS011;1830;49.000;12.074;2023-05-24T16:15:27;14.80;;;4.80;;
3627;SDS011;1830;49.000;12.074;2023-05-24T16:20:22;12.50;;;5.20;;